createdAt,value
2023-01-15T00:00:33.866Z,96792.59
2023-01-15T00:03:00.330Z,96798.84
2023-01-15T00:05:27.537Z,96808.69
2023-01-15T00:07:53.989Z,96809.00
2023-01-15T00:10:20.315Z,96811.63
2023-01-15T00:12:46.677Z,96805.47
2023-01-15T00:15:14.575Z,96806.91
2023-01-15T00:17:41.065Z,96797.41
2023-01-15T00:20:07.408Z,96799.50
2023-01-15T00:22:33.944Z,96788.72
2023-01-15T00:25:00.329Z,96785.81
2023-01-15T00:27:26.712Z,96796.16
2023-01-15T00:29:53.154Z,96784.22
2023-01-15T00:32:19.482Z,96778.00
2023-01-15T00:34:45.857Z,96784.13
2023-01-15T00:37:12.208Z,96781.66
2023-01-15T00:39:38.557Z,96772.31
2023-01-15T00:42:05.122Z,96765.25
2023-01-15T00:44:31.472Z,96770.63
2023-01-15T00:46:57.808Z,96764.44
2023-01-15T00:49:24.167Z,96767.94
2023-01-15T00:51:50.493Z,96764.03
2023-01-15T00:54:16.845Z,96760.53
2023-01-15T00:56:43.250Z,96746.66
2023-01-15T00:59:09.819Z,96721.69
2023-01-15T01:01:36.394Z,96711.00
2023-01-15T01:04:04.933Z,96698.75
2023-01-15T01:06:31.327Z,96707.22
2023-01-15T01:08:57.745Z,96691.75
2023-01-15T01:11:24.142Z,96696.28
2023-01-15T01:13:50.846Z,96698.84
2023-01-15T01:16:17.312Z,96702.75
2023-01-15T01:18:43.746Z,96717.44
2023-01-15T01:21:10.132Z,96714.75
2023-01-15T01:23:36.487Z,96716.19
2023-01-15T01:26:02.879Z,96714.53
2023-01-15T01:28:29.213Z,96718.53
2023-01-15T01:30:55.554Z,96711.50
2023-01-15T01:33:21.919Z,96716.44
2023-01-15T01:35:48.244Z,96724.28
2023-01-15T01:38:14.604Z,96716.66
2023-01-15T01:40:40.998Z,96712.97
2023-01-15T01:43:07.319Z,96723.69
2023-01-15T01:45:33.717Z,96734.81
2023-01-15T01:48:00.127Z,96729.88
2023-01-15T01:50:26.657Z,96724.91
2023-01-15T01:52:52.989Z,96708.56
2023-01-15T01:55:19.320Z,96710.47
2023-01-15T01:57:45.677Z,96703.00
2023-01-15T02:00:12.046Z,96701.16
2023-01-15T02:02:38.415Z,96698.66
2023-01-15T02:05:04.764Z,96686.88
2023-01-15T02:07:31.074Z,96685.41
2023-01-15T02:09:57.475Z,96668.84
2023-01-15T02:12:23.825Z,96658.72
2023-01-15T02:14:50.162Z,96655.19
2023-01-15T02:17:16.535Z,96662.22
2023-01-15T02:19:43.013Z,96643.63
2023-01-15T02:22:09.353Z,96642.81
2023-01-15T02:24:35.690Z,96631.00
2023-01-15T02:27:02.020Z,96646.75
2023-01-15T02:29:28.595Z,96646.75
2023-01-15T02:31:54.965Z,96646.13
2023-01-15T02:34:22.450Z,96649.88
2023-01-15T02:36:48.823Z,96654.63
2023-01-15T02:39:15.201Z,96643.09
2023-01-15T02:41:41.531Z,96647.44
2023-01-15T02:44:07.874Z,96658.97
2023-01-15T02:46:34.200Z,96644.53
2023-01-15T02:49:00.527Z,96648.00
2023-01-15T02:51:26.869Z,96657.31
2023-01-15T02:53:53.191Z,96654.03
2023-01-15T02:56:19.566Z,96659.63
2023-01-15T02:58:45.919Z,96661.47
2023-01-15T03:01:12.370Z,96670.97
2023-01-15T03:03:38.752Z,96660.00
2023-01-15T03:06:05.123Z,96669.09
2023-01-15T03:08:31.524Z,96661.88
2023-01-15T03:10:58.018Z,96661.03
2023-01-15T03:13:24.351Z,96659.41
2023-01-15T03:15:50.720Z,96653.22
2023-01-15T03:18:17.083Z,96656.72
2023-01-15T03:20:43.429Z,96636.28
2023-01-15T03:23:09.870Z,96640.84
2023-01-15T03:25:36.255Z,96632.78
2023-01-15T03:28:02.584Z,96636.06
2023-01-15T03:30:28.980Z,96623.44
2023-01-15T03:32:55.410Z,96616.44
2023-01-15T03:35:21.818Z,96611.88
2023-01-15T03:37:48.255Z,96620.16
2023-01-15T03:40:14.595Z,96598.66
2023-01-15T03:42:40.950Z,96616.09
2023-01-15T03:45:07.329Z,96613.78
2023-01-15T03:47:33.693Z,96612.97
2023-01-15T03:50:00.050Z,96605.28
2023-01-15T03:52:26.407Z,96593.50
2023-01-15T03:54:52.782Z,96602.38
2023-01-15T03:57:20.353Z,96595.97
2023-01-15T03:59:46.783Z,96614.78
2023-01-15T04:02:13.252Z,96620.75
2023-01-15T04:04:42.198Z,96613.75
2023-01-15T04:07:08.568Z,96612.69
2023-01-15T04:09:34.902Z,96617.47
2023-01-15T04:12:01.265Z,96620.59
2023-01-15T04:14:27.601Z,96622.06
2023-01-15T04:16:53.947Z,96620.41
2023-01-15T04:19:20.302Z,96591.31
2023-01-15T04:21:46.672Z,96603.50
2023-01-15T04:24:13.054Z,96611.66
2023-01-15T04:26:39.386Z,96614.81
2023-01-15T04:29:05.730Z,96607.84
2023-01-15T04:31:32.111Z,96586.97
2023-01-15T04:33:58.481Z,96589.22
2023-01-15T04:36:24.816Z,96577.00
2023-01-15T04:38:51.164Z,96557.19
2023-01-15T04:41:17.532Z,96556.75
2023-01-15T04:43:43.888Z,96548.06
2023-01-15T04:46:10.275Z,96543.44
2023-01-15T04:48:36.672Z,96531.03
2023-01-15T04:51:03.012Z,96505.41
2023-01-15T04:53:29.361Z,96509.56
2023-01-15T04:55:55.716Z,96523.38
2023-01-15T04:58:22.049Z,96522.00
2023-01-15T05:00:48.372Z,96524.22
2023-01-15T05:03:14.734Z,96525.44
2023-01-15T05:05:42.850Z,96510.31
2023-01-15T05:08:09.384Z,96503.72
2023-01-15T05:10:35.702Z,96490.72
2023-01-15T05:13:02.027Z,96481.69
2023-01-15T05:15:28.413Z,96482.66
2023-01-15T05:17:54.760Z,96491.69
2023-01-15T05:20:21.100Z,96491.66
2023-01-15T05:22:49.721Z,96475.56
2023-01-15T05:25:16.053Z,96479.91
2023-01-15T05:27:42.415Z,96468.06
2023-01-15T05:30:08.906Z,96453.94
2023-01-15T05:32:35.265Z,96449.63
2023-01-15T05:35:01.638Z,96435.38
2023-01-15T05:37:28.017Z,96458.28
2023-01-15T05:39:54.397Z,96459.47
2023-01-15T05:42:20.725Z,96446.03
2023-01-15T05:44:47.115Z,96436.38
2023-01-15T05:47:13.446Z,96440.03
2023-01-15T05:49:39.792Z,96439.91
2023-01-15T05:52:06.142Z,96427.47
2023-01-15T05:54:32.526Z,96451.38
2023-01-15T05:56:58.952Z,96435.41
2023-01-15T05:59:25.308Z,96435.59
2023-01-15T06:01:51.712Z,96449.63
2023-01-15T06:04:20.132Z,96438.59
2023-01-15T06:06:46.507Z,96444.91
2023-01-15T06:09:12.861Z,96463.03
2023-01-15T06:11:39.297Z,96442.06
2023-01-15T06:14:05.622Z,96444.38
2023-01-15T06:16:31.974Z,96445.38
2023-01-15T06:18:58.396Z,96436.91
2023-01-15T06:21:24.782Z,96436.66
2023-01-15T06:23:51.129Z,96436.00
2023-01-15T06:26:17.507Z,96457.31
2023-01-15T06:28:43.884Z,96426.72
2023-01-15T06:31:11.568Z,96416.38
2023-01-15T06:33:46.151Z,96420.69
2023-01-15T06:36:12.502Z,96424.09
2023-01-15T06:38:38.899Z,96419.03
2023-01-15T06:41:05.278Z,96417.25
2023-01-15T06:43:31.626Z,96411.66
2023-01-15T06:45:58.167Z,96409.59
2023-01-15T06:48:24.671Z,96396.72
2023-01-15T06:50:52.760Z,96373.75
2023-01-15T06:53:19.132Z,96360.91
2023-01-15T06:55:45.472Z,96390.47
2023-01-15T06:58:11.823Z,96359.19
2023-01-15T07:00:38.300Z,96380.25
2023-01-15T07:03:04.732Z,96400.03
2023-01-15T07:05:31.144Z,96405.31
2023-01-15T07:07:57.575Z,96398.09
2023-01-15T07:10:23.942Z,96392.41
2023-01-15T07:12:50.283Z,96405.25
2023-01-15T07:15:16.755Z,96415.03
2023-01-15T07:17:43.111Z,96406.16
2023-01-15T07:20:09.480Z,96400.63
2023-01-15T07:22:35.864Z,96385.09
2023-01-15T07:25:04.630Z,96380.63
2023-01-15T07:27:31.003Z,96387.66
2023-01-15T07:30:00.311Z,96405.56
2023-01-15T07:32:26.643Z,96384.22
2023-01-15T07:34:53.053Z,96369.28
2023-01-15T07:37:19.384Z,96397.78
2023-01-15T07:39:46.728Z,96386.66
2023-01-15T07:42:13.145Z,96372.19
2023-01-15T07:44:39.550Z,96367.63
2023-01-15T07:47:05.946Z,96369.28
2023-01-15T07:49:32.312Z,96367.41
2023-01-15T07:51:58.715Z,96358.53
2023-01-15T07:54:25.091Z,96358.31
2023-01-15T07:56:51.470Z,96355.69
2023-01-15T07:59:17.864Z,96332.31
2023-01-15T08:01:47.215Z,96345.81
2023-01-15T08:04:17.796Z,96338.94
2023-01-15T08:06:53.030Z,96360.00
2023-01-15T08:09:19.454Z,96363.16
2023-01-15T08:11:46.009Z,96360.16
2023-01-15T08:14:12.366Z,96359.84
2023-01-15T08:16:38.739Z,96375.00
2023-01-15T08:19:05.148Z,96388.53
2023-01-15T08:21:31.489Z,96395.53
2023-01-15T08:23:57.802Z,96389.66
2023-01-15T08:26:24.158Z,96412.81
2023-01-15T08:28:50.569Z,96404.59
2023-01-15T08:31:16.922Z,96407.06
2023-01-15T08:33:43.302Z,96406.91
2023-01-15T08:36:09.622Z,96420.34
2023-01-15T08:38:35.961Z,96412.03
2023-01-15T08:41:02.315Z,96404.59
2023-01-15T08:43:28.647Z,96411.84
2023-01-15T08:45:55.029Z,96422.97
2023-01-15T08:48:21.426Z,96421.13
2023-01-15T08:50:47.765Z,96435.59
2023-01-15T08:53:14.174Z,96463.19
2023-01-15T08:55:40.564Z,96490.25
2023-01-15T08:58:06.907Z,96505.78
2023-01-15T09:00:33.313Z,96519.41
2023-01-15T09:02:59.681Z,96524.13
2023-01-15T09:05:26.069Z,96526.25
2023-01-15T09:07:52.536Z,96580.19
2023-01-15T09:10:18.990Z,96555.16
2023-01-15T09:12:45.381Z,96586.53
2023-01-15T09:15:11.722Z,96618.38
2023-01-15T09:17:38.110Z,96630.19
2023-01-15T09:20:04.518Z,96652.69
2023-01-15T09:22:31.079Z,96658.03
2023-01-15T09:24:57.620Z,96663.16
2023-01-15T09:27:24.175Z,96667.31
2023-01-15T09:29:53.564Z,96670.66
2023-01-15T09:32:19.962Z,96686.91
2023-01-15T09:34:46.303Z,96695.38
2023-01-15T09:37:12.654Z,96692.47
2023-01-15T09:39:39.081Z,96726.91
2023-01-15T09:42:05.595Z,96754.66
2023-01-15T09:44:31.949Z,96745.22
2023-01-15T09:46:58.365Z,96754.91
2023-01-15T09:49:24.859Z,96757.53
2023-01-15T09:51:51.203Z,96760.00
2023-01-15T09:54:18.285Z,96768.28
2023-01-15T09:56:44.858Z,96780.56
2023-01-15T09:59:11.231Z,96795.41
2023-01-15T10:01:37.551Z,96786.50
2023-01-15T10:04:04.004Z,96774.66
2023-01-15T10:06:30.495Z,96796.66
2023-01-15T10:08:56.879Z,96797.06
2023-01-15T10:11:23.393Z,96802.81
2023-01-15T10:13:52.472Z,96810.00
2023-01-15T10:16:19.005Z,96807.94
2023-01-15T10:18:45.458Z,96816.56
2023-01-15T10:21:11.860Z,96830.63
2023-01-15T10:23:39.450Z,96850.53
2023-01-15T10:26:05.962Z,96855.94
2023-01-15T10:28:32.369Z,96843.06
2023-01-15T10:30:59.003Z,96877.09
2023-01-15T10:33:25.351Z,96870.69
2023-01-15T10:35:51.788Z,96865.44
2023-01-15T10:38:18.219Z,96866.91
2023-01-15T10:40:44.589Z,96862.81
2023-01-15T10:43:11.151Z,96860.16
2023-01-15T10:45:37.591Z,96859.41
2023-01-15T10:48:04.004Z,96860.81
2023-01-15T10:50:30.757Z,96857.81
2023-01-15T10:52:57.146Z,96859.91
2023-01-15T10:55:26.536Z,96877.22
2023-01-15T10:58:09.134Z,96881.56
2023-01-15T11:00:36.098Z,96892.34
2023-01-15T11:03:02.637Z,96895.25
2023-01-15T11:05:29.037Z,96895.81
2023-01-15T11:08:48.220Z,96905.28
2023-01-15T11:10:41.819Z,96904.88
2023-01-15T11:13:08.217Z,96902.63
2023-01-15T11:15:34.585Z,96904.44
2023-01-15T11:18:01.028Z,96910.22
2023-01-15T11:20:27.475Z,96914.16
2023-01-15T11:22:53.991Z,96905.47
2023-01-15T11:25:20.430Z,96917.13
2023-01-15T11:27:46.825Z,96920.59
2023-01-15T11:30:13.296Z,96922.91
2023-01-15T11:32:39.768Z,96931.47
2023-01-15T11:35:06.124Z,96939.66
2023-01-15T11:37:32.628Z,96950.88
2023-01-15T11:39:59.197Z,96958.41
2023-01-15T11:42:25.599Z,96958.19
2023-01-15T11:44:52.003Z,96956.75
2023-01-15T11:47:18.511Z,96975.00
2023-01-15T11:49:45.038Z,96967.97
2023-01-15T11:52:16.042Z,96976.47
2023-01-15T11:54:42.456Z,96987.97
2023-01-15T11:57:08.918Z,96977.97
2023-01-15T11:59:36.539Z,96975.88
2023-01-15T12:02:06.316Z,96987.47
2023-01-15T12:04:32.737Z,97001.13
2023-01-15T12:06:59.181Z,96997.25
2023-01-15T12:09:25.583Z,97007.41
2023-01-15T12:11:51.956Z,97004.53
2023-01-15T12:14:20.490Z,97006.72
2023-01-15T12:16:46.894Z,97015.47
2023-01-15T12:19:13.313Z,97020.84
2023-01-15T12:21:39.738Z,97030.41
2023-01-15T12:24:06.175Z,97043.03
2023-01-15T12:26:32.549Z,97056.28
2023-01-15T12:28:59.071Z,97057.31
2023-01-15T12:31:25.486Z,97058.13
2023-01-15T12:33:51.984Z,97064.41
2023-01-15T12:36:18.450Z,97062.44
2023-01-15T12:38:44.883Z,97058.75
2023-01-15T12:41:11.223Z,97059.75
2023-01-15T12:43:37.637Z,97049.00
2023-01-15T12:46:03.979Z,97045.63
2023-01-15T12:48:35.145Z,97044.03
2023-01-15T12:51:01.574Z,97039.72
2023-01-15T12:53:27.956Z,97044.41
2023-01-15T12:55:54.347Z,97045.13
2023-01-15T12:58:20.788Z,97041.38
2023-01-15T13:00:47.450Z,97041.34
2023-01-15T13:03:13.863Z,97037.13
2023-01-15T13:05:40.221Z,97042.56
2023-01-15T13:08:06.690Z,97045.22
2023-01-15T13:10:33.093Z,97040.72
2023-01-15T13:12:59.523Z,97044.06
2023-01-15T13:15:26.948Z,97042.38
2023-01-15T13:17:53.339Z,97043.09
2023-01-15T13:20:19.742Z,97047.53
2023-01-15T13:22:46.085Z,97050.56
2023-01-15T13:25:14.797Z,97062.00
2023-01-15T13:27:41.150Z,97056.84
2023-01-15T13:30:07.744Z,97062.91
2023-01-15T13:32:34.174Z,97057.41
2023-01-15T13:35:00.588Z,97061.25
2023-01-15T13:37:26.987Z,97044.50
2023-01-15T13:39:54.535Z,97048.34
2023-01-15T13:42:21.015Z,97050.50
2023-01-15T13:44:47.475Z,97052.78
2023-01-15T13:47:13.832Z,97056.94
2023-01-15T13:49:40.361Z,97053.34
2023-01-15T13:52:08.873Z,97054.25
2023-01-15T13:54:35.291Z,97033.91
2023-01-15T13:57:01.768Z,97023.47
2023-01-15T13:59:28.168Z,97016.56
2023-01-15T14:01:54.677Z,97008.38
2023-01-15T14:04:21.145Z,96994.75
2023-01-15T14:06:47.560Z,96974.59
2023-01-15T14:09:14.011Z,96977.25
2023-01-15T14:11:40.442Z,96977.81
2023-01-15T14:14:06.784Z,96981.78
2023-01-15T14:16:33.230Z,97000.09
2023-01-15T14:18:59.685Z,97003.59
2023-01-15T14:21:26.167Z,97004.69
2023-01-15T14:23:52.632Z,97011.13
2023-01-15T14:26:19.041Z,97014.81
2023-01-15T14:28:45.605Z,97017.28
2023-01-15T14:31:13.073Z,97011.13
2023-01-15T14:33:39.489Z,97009.38
2023-01-15T14:36:06.006Z,97003.53
2023-01-15T14:38:35.850Z,97007.88
2023-01-15T14:41:02.379Z,97014.38
2023-01-15T14:43:28.775Z,97013.16
2023-01-15T14:45:55.282Z,97012.34
2023-01-15T14:48:21.708Z,97010.50
2023-01-15T14:50:48.313Z,97011.78
2023-01-15T14:53:14.870Z,97007.97
2023-01-15T14:55:41.305Z,97001.75
2023-01-15T14:58:08.024Z,97002.09
2023-01-15T15:00:34.452Z,97003.44
2023-01-15T15:03:01.027Z,97013.34
2023-01-15T15:05:27.571Z,97015.44
2023-01-15T15:07:55.291Z,97016.53
2023-01-15T15:10:21.730Z,97023.72
2023-01-15T15:12:48.164Z,97019.59
2023-01-15T15:15:14.575Z,97023.16
2023-01-15T15:17:41.020Z,97026.47
2023-01-15T15:20:07.409Z,97021.97
2023-01-15T15:22:33.894Z,97020.38
2023-01-15T15:25:00.325Z,97014.56
2023-01-15T15:27:26.783Z,97013.75
2023-01-15T15:29:53.239Z,97018.50
2023-01-15T15:32:19.734Z,97013.34
2023-01-15T15:34:46.151Z,97004.31
2023-01-15T15:37:12.607Z,96996.44
2023-01-15T15:39:39.041Z,96991.09
2023-01-15T15:42:05.480Z,96991.28
2023-01-15T15:44:31.875Z,96986.09
2023-01-15T15:46:58.310Z,96983.78
2023-01-15T15:49:24.708Z,96967.50
2023-01-15T15:51:51.099Z,96968.91
2023-01-15T15:54:17.658Z,96964.16
2023-01-15T15:56:44.044Z,96965.91
2023-01-15T15:59:10.468Z,96965.44
2023-01-15T16:01:37.173Z,96971.78
2023-01-15T16:04:03.616Z,96971.78
2023-01-15T16:06:30.117Z,96973.38
2023-01-15T16:08:56.608Z,96972.75
2023-01-15T16:11:23.179Z,96975.41
2023-01-15T16:13:49.569Z,96979.28
2023-01-15T16:16:16.048Z,96975.22
2023-01-15T16:18:43.894Z,96974.41
2023-01-15T16:21:10.299Z,96971.66
2023-01-15T16:23:36.683Z,96971.47
2023-01-15T16:26:03.090Z,96971.94
2023-01-15T16:28:29.502Z,96959.19
2023-01-15T16:30:55.968Z,96957.13
2023-01-15T16:33:24.651Z,96954.66
2023-01-15T16:35:51.037Z,96960.66
2023-01-15T16:38:17.443Z,96963.53
2023-01-15T16:40:43.852Z,96960.84
2023-01-15T16:43:10.330Z,96954.47
2023-01-15T16:45:36.876Z,96954.31
2023-01-15T16:48:03.251Z,96966.00
2023-01-15T16:50:29.646Z,96962.69
2023-01-15T16:52:57.263Z,96952.84
2023-01-15T16:55:25.016Z,96956.72
2023-01-15T16:57:51.461Z,96957.28
2023-01-15T17:00:17.852Z,96955.09
2023-01-15T17:02:44.536Z,96951.16
2023-01-15T17:05:19.934Z,96953.00
2023-01-15T17:07:46.335Z,96951.16
2023-01-15T17:10:13.996Z,96953.63
2023-01-15T17:12:40.393Z,96950.50
2023-01-15T17:15:06.812Z,96945.09
2023-01-15T17:17:33.265Z,96950.06
2023-01-15T17:19:59.664Z,96945.91
2023-01-15T17:22:26.061Z,96949.47
2023-01-15T17:24:52.477Z,96945.63
2023-01-15T17:27:18.930Z,96938.41
2023-01-15T17:29:45.343Z,96937.59
2023-01-15T17:32:12.441Z,96939.81
2023-01-15T17:34:38.862Z,96935.94
2023-01-15T17:37:05.297Z,96941.03
2023-01-15T17:39:31.714Z,96942.66
2023-01-15T17:41:58.123Z,96942.13
2023-01-15T17:44:24.543Z,96941.09
2023-01-15T17:46:50.978Z,96933.91
2023-01-15T17:49:17.355Z,96933.72
2023-01-15T17:51:43.760Z,96928.19
2023-01-15T17:54:12.360Z,96930.66
2023-01-15T17:56:38.843Z,96917.31
2023-01-15T17:59:05.229Z,96917.13
2023-01-15T18:01:31.797Z,96906.44
2023-01-15T18:03:58.267Z,96910.69
2023-01-15T18:06:24.654Z,96906.34
2023-01-15T18:08:55.171Z,96900.63
2023-01-15T18:11:21.654Z,96895.28
2023-01-15T18:13:48.084Z,96897.31
2023-01-15T18:16:14.520Z,96892.78
2023-01-15T18:18:40.980Z,96887.44
2023-01-15T18:21:07.543Z,96875.94
2023-01-15T18:23:34.054Z,96869.78
2023-01-15T18:26:03.715Z,96864.63
2023-01-15T18:28:30.192Z,96874.47
2023-01-15T18:30:56.651Z,96866.66
2023-01-15T18:33:25.914Z,96865.84
2023-01-15T18:35:52.277Z,96866.03
2023-01-15T18:38:18.710Z,96860.03
2023-01-15T18:40:45.055Z,96862.50
2023-01-15T18:43:11.480Z,96859.84
2023-01-15T18:45:37.853Z,96868.00
2023-01-15T18:48:04.229Z,96866.25
2023-01-15T18:50:30.642Z,96869.22
2023-01-15T18:52:56.971Z,96863.41
2023-01-15T18:55:23.350Z,96851.72
2023-01-15T18:57:49.772Z,96849.03
2023-01-15T19:00:16.213Z,96834.66
2023-01-15T19:02:43.890Z,96835.06
2023-01-15T19:05:12.624Z,96835.06
2023-01-15T19:07:39.082Z,96837.47
2023-01-15T19:10:05.577Z,96830.72
2023-01-15T19:12:32.021Z,96829.94
2023-01-15T19:14:58.376Z,96817.41
2023-01-15T19:17:24.744Z,96817.97
2023-01-15T19:19:51.147Z,96813.22
2023-01-15T19:22:20.448Z,96822.03
2023-01-15T19:24:46.896Z,96819.56
2023-01-15T19:27:13.295Z,96812.41
2023-01-15T19:29:39.727Z,96805.78
2023-01-15T19:32:06.164Z,96798.97
2023-01-15T19:34:35.340Z,96809.84
2023-01-15T19:37:01.717Z,96810.03
2023-01-15T19:39:33.408Z,96809.19
2023-01-15T19:41:59.812Z,96804.88
2023-01-15T19:44:26.346Z,96794.03
2023-01-15T19:46:52.754Z,96786.00
2023-01-15T19:49:19.154Z,96781.88
2023-01-15T19:51:45.616Z,96779.97
2023-01-15T19:54:12.053Z,96778.69
2023-01-15T19:56:39.842Z,96769.78
2023-01-15T19:59:06.206Z,96769.78
2023-01-15T20:01:32.662Z,96768.94
2023-01-15T20:03:59.141Z,96767.31
2023-01-15T20:06:25.572Z,96769.22
2023-01-15T20:08:54.350Z,96760.88
2023-01-15T20:11:20.760Z,96755.28
2023-01-15T20:13:47.117Z,96743.78
2023-01-15T20:16:13.601Z,96741.13
2023-01-15T20:18:40.048Z,96732.66
2023-01-15T20:21:06.448Z,96728.31
2023-01-15T20:23:32.852Z,96727.69
2023-01-15T20:26:05.949Z,96731.38
2023-01-15T20:28:37.423Z,96729.06
2023-01-15T20:31:03.820Z,96729.69
2023-01-15T20:33:30.201Z,96725.41
2023-01-15T20:35:56.619Z,96715.94
2023-01-15T20:38:23.115Z,96715.13
2023-01-15T20:40:49.556Z,96703.59
2023-01-15T20:43:15.935Z,96709.78
2023-01-15T20:45:46.152Z,96705.44
2023-01-15T20:48:12.563Z,96703.56
2023-01-15T20:50:38.984Z,96693.41
2023-01-15T20:53:11.264Z,96694.25
2023-01-15T20:55:53.801Z,96682.56
2023-01-15T20:58:23.158Z,96675.50
2023-01-15T21:00:52.972Z,96678.38
2023-01-15T21:03:22.507Z,96669.72
2023-01-15T21:05:48.893Z,96667.03
2023-01-15T21:08:15.266Z,96651.63
2023-01-15T21:10:41.647Z,96651.63
2023-01-15T21:13:09.050Z,96653.88
2023-01-15T21:15:38.285Z,96656.63
2023-01-15T21:18:04.679Z,96658.47
2023-01-15T21:20:31.085Z,96659.28
2023-01-15T21:23:02.051Z,96654.34
2023-01-15T21:25:28.406Z,96650.63
2023-01-15T21:27:57.804Z,96651.47
2023-01-15T21:30:26.088Z,96645.78
2023-01-15T21:32:54.829Z,96635.91
2023-01-15T21:35:21.193Z,96619.69
2023-01-15T21:37:47.620Z,96618.50
2023-01-15T21:40:15.584Z,96604.31
2023-01-15T21:42:42.021Z,96606.09
2023-01-15T21:45:08.381Z,96603.69
2023-01-15T21:47:34.806Z,96598.16
2023-01-15T21:50:02.238Z,96598.78
2023-01-15T21:52:28.659Z,96592.25
2023-01-15T21:54:55.248Z,96591.47
2023-01-15T21:57:21.606Z,96583.09
2023-01-15T21:59:48.003Z,96570.63
2023-01-15T22:02:21.731Z,96555.25
2023-01-15T22:04:48.434Z,96535.78
2023-01-15T22:07:14.868Z,96532.09
2023-01-15T22:09:41.255Z,96541.09
2023-01-15T22:12:07.703Z,96549.09
2023-01-15T22:14:34.174Z,96545.34
2023-01-15T22:17:00.553Z,96534.97
2023-01-15T22:19:27.139Z,96528.59
2023-01-15T22:21:53.545Z,96527.59
2023-01-15T22:24:20.805Z,96517.72
2023-01-15T22:26:49.556Z,96511.59
2023-01-15T22:29:15.879Z,96512.78
2023-01-15T22:31:42.220Z,96511.13
2023-01-15T22:34:08.545Z,96503.78
2023-01-15T22:36:35.119Z,96514.69
2023-01-15T22:39:04.573Z,96503.84
2023-01-15T22:41:30.927Z,96498.44
2023-01-15T22:43:57.366Z,96494.31
2023-01-15T22:46:23.782Z,96488.59
2023-01-15T22:48:50.277Z,96485.06
2023-01-15T22:51:16.705Z,96477.66
2023-01-15T22:53:43.040Z,96472.69
2023-01-15T22:56:09.365Z,96472.88
2023-01-15T22:58:35.704Z,96461.06
2023-01-15T23:01:02.151Z,96447.34
2023-01-15T23:03:28.523Z,96444.25
2023-01-15T23:05:54.869Z,96443.63
2023-01-15T23:08:22.288Z,96444.25
2023-01-15T23:10:48.638Z,96443.06
2023-01-15T23:13:15.190Z,96445.41
2023-01-15T23:15:41.816Z,96438.06
2023-01-15T23:18:08.183Z,96414.28
2023-01-15T23:20:34.522Z,96402.44
2023-01-15T23:23:01.214Z,96412.09
2023-01-15T23:25:27.591Z,96414.75
2023-01-15T23:27:54.453Z,96410.75
2023-01-15T23:30:20.761Z,96407.47
2023-01-15T23:32:47.116Z,96389.69
2023-01-15T23:35:20.558Z,96387.16
2023-01-15T23:37:47.042Z,96376.31
2023-01-15T23:40:13.549Z,96355.84
2023-01-15T23:42:40.059Z,96346.56
2023-01-15T23:45:07.556Z,96348.59
2023-01-15T23:47:33.890Z,96352.50
2023-01-15T23:50:02.314Z,96360.50
2023-01-15T23:52:28.685Z,96358.16
2023-01-15T23:54:55.097Z,96354.44
2023-01-15T23:57:21.451Z,96347.72
2023-01-15T23:59:47.779Z,96339.97
